Time;durP1;ratioP1;P1;durP2;ratioP2;P2;SDS_P1;SDS_P2;PMS_P1;PMS_P2;Temp;Humidity;BMP_temperature;BMP_pressure;BME280_temperature;BME280_humidity;BME280_pressure;Samples;Min_cycle;Max_cycle;Signal;HPM_P1;HPM_P2
2021/12/16 00:09:21;;;;;;;8.68;6.38;;;5.30;99.90;;;;;;6183404;23;20527;-80
2021/12/16 00:33:45;;;;;;;9.18;6.28;;;5.20;99.90;;;;;;6215699;23;20016;-80
2021/12/16 00:36:12;;;;;;;9.85;6.10;;;5.20;99.90;;;;;;6215475;23;20000;-80
2021/12/16 00:38:41;;;;;;;8.48;6.38;;;5.20;99.90;;;;;;6215653;23;20008;-80
2021/12/16 00:41:06;;;;;;;7.63;6.10;;;5.20;99.90;;;;;;6215556;23;20028;-80
2021/12/16 00:43:43;;;;;;;9.93;7.05;;;5.20;99.90;;;;;;6215166;23;20000;-80
2021/12/16 00:54:12;;;;;;;7.78;5.72;;;5.20;99.90;;;;;;6214957;23;20050;-79
2021/12/16 00:56:55;;;;;;;7.10;5.82;;;5.20;99.90;;;;;;6214908;23;20005;-78
2021/12/16 00:59:22;;;;;;;8.85;5.60;;;5.20;99.90;;;;;;6214603;23;20004;-78
2021/12/16 01:01:57;;;;;;;10.82;6.13;;;5.20;99.90;;;;;;6213365;23;20005;-80
2021/12/16 01:35:15;;;;;;;8.57;6.25;;;5.20;99.90;;;;;;6215099;23;20063;-80
2021/12/16 01:50:32;;;;;;;9.02;6.50;;;5.20;99.90;;;;;;6215334;23;20087;-80
2021/12/16 01:53:20;;;;;;;9.48;7.38;;;5.20;99.90;;;;;;6215263;23;20001;-80
2021/12/16 01:56:00;;;;;;;11.55;7.43;;;5.20;99.90;;;;;;6213477;23;20452;-80
2021/12/16 01:58:29;;;;;;;10.05;7.28;;;5.20;99.90;;;;;;6215217;23;20004;-80
2021/12/16 02:01:11;;;;;;;10.93;7.05;;;5.20;99.90;;;;;;6214793;23;20379;-77
2021/12/16 02:03:43;;;;;;;;;;;5.20;99.90;;;;;;6216097;23;20004;-79
2021/12/16 02:08:51;;;;;;;11.20;7.60;;;5.20;99.90;;;;;;6217994;23;20087;-80
2021/12/16 02:32:56;;;;;;;15.68;9.40;;;5.10;99.90;;;;;;6216990;23;20387;-79
2021/12/16 02:35:35;;;;;;;12.60;7.93;;;5.10;99.90;;;;;;6215276;23;20348;-80
2021/12/16 02:38:04;;;;;;;13.23;8.10;;;5.10;99.90;;;;;;6216958;23;19997;-80
2021/12/16 02:40:32;;;;;;;15.77;8.73;;;5.10;99.90;;;;;;6216924;23;20041;-79
2021/12/16 02:43:07;;;;;;;11.45;7.32;;;5.10;99.90;;;;;;6216665;23;20076;-79
2021/12/16 02:48:37;;;;;;;12.43;8.52;;;5.10;99.90;;;;;;6155254;23;20009;-79
2021/12/16 02:51:14;;;;;;;12.05;8.70;;;5.10;99.90;;;;;;6205282;23;20028;-79
2021/12/16 02:53:46;;;;;;;16.20;8.70;;;5.20;99.90;;;;;;6216867;23;20539;-79
2021/12/16 02:56:13;;;;;;;11.77;8.07;;;5.10;99.90;;;;;;6216511;23;20008;-79
2021/12/16 02:58:42;;;;;;;12.52;8.43;;;5.10;99.90;;;;;;6216866;23;20012;-80
2021/12/16 03:01:28;;;;;;;15.43;9.35;;;5.10;99.90;;;;;;6216818;23;20024;-79
2021/12/16 03:03:56;;;;;;;15.10;9.38;;;5.20;99.90;;;;;;6216397;23;20016;-79
2021/12/16 03:06:22;;;;;;;13.07;8.35;;;5.10;99.90;;;;;;6216510;23;20016;-78
2021/12/16 03:08:50;;;;;;;12.68;9.43;;;5.10;99.90;;;;;;6215144;23;20034;-79
2021/12/16 03:11:23;;;;;;;16.42;10.20;;;5.10;99.90;;;;;;6216484;23;20079;-80
2021/12/16 03:17:05;;;;;;;16.63;8.93;;;5.10;99.90;;;;;;6216564;23;20015;-79
2021/12/16 03:22:19;;;;;;;15.05;8.52;;;5.10;99.90;;;;;;6216778;23;20433;-80
2021/12/16 03:35:38;;;;;;;15.00;9.65;;;5.20;99.90;;;;;;6218891;23;20016;-80
2021/12/16 03:38:09;;;;;;;15.00;9.57;;;5.20;99.90;;;;;;6216255;23;20054;-80
2021/12/16 03:40:37;;;;;;;20.73;9.75;;;5.10;99.90;;;;;;6216483;23;19997;-79
2021/12/16 03:43:12;;;;;;;22.40;10.43;;;5.10;99.90;;;;;;6216176;23;20424;-80
2021/12/16 03:48:52;;;;;;;14.52;10.25;;;5.10;99.90;;;;;;6192435;23;20001;-80
2021/12/16 03:51:39;;;;;;;16.67;9.57;;;5.10;99.90;;;;;;6214744;23;20437;-79
2021/12/16 03:54:16;;;;;;;17.67;10.77;;;5.00;99.90;;;;;;6216009;23;20000;-79
2021/12/16 03:56:43;;;;;;;15.90;10.52;;;5.00;99.90;;;;;;6216217;23;20008;-79
2021/12/16 03:59:11;;;;;;;16.38;10.55;;;5.00;99.90;;;;;;6216333;23;20079;-79
2021/12/16 04:01:37;;;;;;;20.63;11.25;;;5.00;99.90;;;;;;6216095;23;20075;-79
2021/12/16 04:04:04;;;;;;;16.63;9.45;;;5.00;99.90;;;;;;6216019;23;20028;-80
2021/12/16 04:06:35;;;;;;;17.27;10.65;;;5.10;99.90;;;;;;6215846;23;20092;-79
2021/12/16 04:09:03;;;;;;;16.35;11.20;;;5.00;99.90;;;;;;6216132;23;20000;-79
2021/12/16 04:11:39;;;;;;;15.65;10.23;;;5.00;99.90;;;;;;6216048;23;20001;-79
2021/12/16 04:14:07;;;;;;;16.17;9.40;;;4.80;99.90;;;;;;6215931;23;20028;-80
2021/12/16 04:16:41;;;;;;;16.50;10.43;;;4.80;99.90;;;;;;6216023;23;20084;-80
2021/12/16 04:19:11;;;;;;;15.10;9.43;;;4.80;99.90;;;;;;6216009;23;20028;-80
2021/12/16 04:21:40;;;;;;;20.92;10.98;;;4.70;99.90;;;;;;6214419;23;20080;-79
2021/12/16 04:24:06;;;;;;;20.25;11.77;;;4.60;99.90;;;;;;6215201;23;20011;-79
2021/12/16 04:26:33;;;;;;;17.10;11.60;;;4.50;99.90;;;;;;6215958;23;20001;-79
2021/12/16 04:29:00;;;;;;;17.42;10.85;;;4.30;99.90;;;;;;6215714;23;20008;-79
2021/12/16 04:31:26;;;;;;;19.63;11.80;;;4.30;99.90;;;;;;6216078;23;20328;-80
2021/12/16 04:33:52;;;;;;;18.20;10.95;;;4.30;99.90;;;;;;6215699;23;20001;-79
2021/12/16 04:36:18;;;;;;;15.88;10.85;;;4.30;99.90;;;;;;6215874;23;20008;-79
2021/12/16 04:38:46;;;;;;;19.65;12.20;;;4.40;99.90;;;;;;6215866;23;20004;-79
2021/12/16 04:41:13;;;;;;;20.30;12.57;;;4.50;99.90;;;;;;6215758;23;20075;-80
2021/12/16 04:43:44;;;;;;;19.35;11.70;;;4.50;99.90;;;;;;6215646;23;20013;-80
2021/12/16 04:46:15;;;;;;;20.90;12.73;;;4.60;99.90;;;;;;6215760;23;20001;-80
2021/12/16 04:48:43;;;;;;;16.85;10.75;;;4.60;99.90;;;;;;6215717;23;20083;-80
2021/12/16 04:51:10;;;;;;;20.40;11.30;;;4.60;99.90;;;;;;6215740;23;20004;-80
2021/12/16 04:53:36;;;;;;;24.20;11.63;;;4.60;99.90;;;;;;6215621;23;20004;-80
2021/12/16 04:56:04;;;;;;;20.60;11.93;;;4.60;99.90;;;;;;6215495;23;20000;-78
2021/12/16 04:58:30;;;;;;;19.50;11.55;;;4.50;99.90;;;;;;6215615;23;20001;-80
2021/12/16 05:00:56;;;;;;;18.50;11.73;;;4.50;99.90;;;;;;6214057;23;20019;-79
2021/12/16 05:03:22;;;;;;;19.63;12.25;;;4.50;99.90;;;;;;6215426;23;20005;-79
2021/12/16 05:05:48;;;;;;;20.05;12.38;;;4.50;99.90;;;;;;6215273;23;20059;-79
2021/12/16 05:08:14;;;;;;;19.58;10.90;;;4.50;99.90;;;;;;6215617;23;20372;-79
2021/12/16 05:10:40;;;;;;;17.03;11.23;;;4.50;99.90;;;;;;6215531;23;20029;-79
2021/12/16 05:13:06;;;;;;;19.60;11.93;;;4.50;99.90;;;;;;6215467;23;20008;-79
2021/12/16 05:15:36;;;;;;;19.58;11.48;;;4.50;99.90;;;;;;6215341;23;20007;-80
2021/12/16 05:18:05;;;;;;;22.38;11.00;;;4.50;99.90;;;;;;6215486;23;20024;-79
2021/12/16 05:20:40;;;;;;;19.58;11.35;;;4.50;99.90;;;;;;6215449;23;20028;-79
2021/12/16 05:28:35;;;;;;;16.98;11.23;;;4.50;99.90;;;;;;6215387;23;20007;-79
2021/12/16 05:31:01;;;;;;;20.48;11.45;;;4.50;99.90;;;;;;6215148;23;20079;-79
2021/12/16 05:33:27;;;;;;;18.25;11.63;;;4.60;99.90;;;;;;6215358;23;20118;-80
2021/12/16 05:35:54;;;;;;;19.65;11.15;;;4.50;99.90;;;;;;6215044;23;20004;-79
2021/12/16 05:38:20;;;;;;;20.02;11.55;;;4.60;99.90;;;;;;6215348;23;20073;-80
2021/12/16 05:40:46;;;;;;;19.52;11.77;;;4.50;99.90;;;;;;6215359;23;20004;-80
2021/12/16 05:43:17;;;;;;;21.65;12.30;;;4.50;99.90;;;;;;6215173;23;20020;-80
2021/12/16 05:45:45;;;;;;;20.10;11.93;;;4.50;99.90;;;;;;6215269;23;20004;-79
2021/12/16 05:48:15;;;;;;;19.40;12.15;;;4.50;99.90;;;;;;6215309;23;19997;-79
2021/12/16 05:50:45;;;;;;;19.98;12.25;;;4.50;99.90;;;;;;6215278;23;19996;-80
2021/12/16 05:53:11;;;;;;;20.05;12.13;;;4.50;99.90;;;;;;6215286;23;20001;-79
2021/12/16 05:55:38;;;;;;;20.30;12.05;;;4.40;99.90;;;;;;6213525;23;20036;-79
2021/12/16 05:58:07;;;;;;;24.48;13.32;;;4.40;99.90;;;;;;6215224;23;20007;-80
2021/12/16 06:00:40;;;;;;;21.98;13.32;;;4.40;99.90;;;;;;6215309;23;20000;-80
2021/12/16 06:03:06;;;;;;;21.85;13.02;;;4.40;99.90;;;;;;6215010;23;20003;-80
2021/12/16 06:05:33;;;;;;;22.98;13.52;;;4.40;99.90;;;;;;6214972;23;20059;-80
2021/12/16 06:07:59;;;;;;;24.48;14.13;;;4.40;99.90;;;;;;6215144;23;20448;-79
2021/12/16 06:12:52;;;;;;;26.55;14.63;;;4.40;99.90;;;;;;6217652;23;20040;-80
2021/12/16 06:15:34;;;;;;;24.40;14.98;;;4.40;99.90;;;;;;6215056;23;20010;-79
2021/12/16 06:29:01;;;;;;;25.10;14.98;;;4.40;99.90;;;;;;6190123;23;20412;-79
2021/12/16 06:31:27;;;;;;;27.38;14.98;;;4.40;99.90;;;;;;6215175;23;20001;-80
2021/12/16 06:33:53;;;;;;;26.85;15.20;;;4.40;99.90;;;;;;6214997;23;20015;-80
2021/12/16 06:36:19;;;;;;;27.95;15.73;;;4.40;99.90;;;;;;6215067;23;20036;-80
2021/12/16 06:38:44;;;;;;;25.08;14.35;;;4.40;99.90;;;;;;6215060;23;20012;-79
2021/12/16 06:41:10;;;;;;;26.33;13.85;;;4.50;99.90;;;;;;6215043;23;20499;-79
2021/12/16 06:43:37;;;;;;;27.67;15.32;;;4.40;99.90;;;;;;6214684;23;20428;-80
2021/12/16 06:46:06;;;;;;;26.95;14.85;;;4.40;99.90;;;;;;6215042;23;19996;-79
2021/12/16 06:48:35;;;;;;;25.77;14.57;;;4.40;99.90;;;;;;6216463;23;19996;-79
2021/12/16 06:51:08;;;;;;;25.27;14.25;;;4.40;99.90;;;;;;6216941;23;20131;-80
2021/12/16 06:53:48;;;;;;;29.23;14.75;;;4.40;99.90;;;;;;6216684;23;20001;-80
2021/12/16 06:56:33;;;;;;;25.77;14.85;;;4.40;99.90;;;;;;6216800;23;20015;-80
2021/12/16 06:59:19;;;;;;;27.27;15.77;;;4.40;99.90;;;;;;6215180;23;20011;-79
2021/12/16 07:01:59;;;;;;;27.23;15.60;;;4.40;99.90;;;;;;6216627;23;20000;-80
2021/12/16 07:04:25;;;;;;;29.30;15.82;;;4.40;99.90;;;;;;6216245;23;20379;-79
2021/12/16 07:06:51;;;;;;;34.67;16.90;;;4.40;99.90;;;;;;6216666;23;20502;-80
2021/12/16 07:09:18;;;;;;;38.28;15.73;;;4.40;99.90;;;;;;6216770;23;20001;-79
2021/12/16 07:11:49;;;;;;;28.25;16.45;;;4.40;99.90;;;;;;6216647;23;20079;-79
2021/12/16 07:14:17;;;;;;;29.45;16.10;;;4.40;99.90;;;;;;6216550;23;20010;-80
2021/12/16 07:16:48;;;;;;;30.50;16.02;;;4.40;99.90;;;;;;6216633;23;20009;-80
2021/12/16 07:19:15;;;;;;;32.10;16.52;;;4.40;99.90;;;;;;6216731;23;20004;-79
2021/12/16 07:21:42;;;;;;;29.38;16.05;;;4.40;99.90;;;;;;6215062;23;20008;-79
2021/12/16 07:24:12;;;;;;;28.40;16.00;;;4.40;99.90;;;;;;6216215;23;20020;-80
2021/12/16 07:26:38;;;;;;;29.13;16.63;;;4.40;99.90;;;;;;6216545;23;20000;-78
2021/12/16 07:29:06;;;;;;;30.83;16.30;;;4.40;99.90;;;;;;6216443;23;20004;-78
2021/12/16 07:31:33;;;;;;;34.38;16.75;;;4.40;99.90;;;;;;6216464;23;20012;-80
2021/12/16 07:34:00;;;;;;;27.85;15.65;;;4.50;99.90;;;;;;6216279;23;20007;-78
2021/12/16 07:36:27;;;;;;;27.80;15.15;;;4.50;99.90;;;;;;6216375;23;20059;-78
2021/12/16 07:38:54;;;;;;;30.67;16.95;;;4.50;99.90;;;;;;6214774;23;20013;-78
2021/12/16 07:41:24;;;;;;;33.38;16.83;;;4.50;99.90;;;;;;6216414;23;20035;-78
2021/12/16 07:43:58;;;;;;;31.17;16.75;;;4.60;99.90;;;;;;6216241;23;20079;-80
2021/12/16 07:46:25;;;;;;;28.30;16.02;;;4.60;99.90;;;;;;6216354;23;20444;-80
2021/12/16 07:48:51;;;;;;;28.80;16.70;;;4.60;99.90;;;;;;6216331;23;19997;-80
2021/12/16 07:51:17;;;;;;;26.92;16.85;;;4.60;99.90;;;;;;6215752;23;20510;-80
2021/12/16 07:53:43;;;;;;;32.00;19.48;;;4.60;99.90;;;;;;6216165;23;20095;-80
2021/12/16 07:56:10;;;;;;;39.25;20.92;;;4.60;99.90;;;;;;6216269;23;20132;-80
2021/12/16 07:58:36;;;;;;;35.55;20.40;;;4.70;99.90;;;;;;6216052;23;20005;-80
2021/12/16 08:01:04;;;;;;;42.05;21.90;;;4.70;99.90;;;;;;6216200;23;20016;-80
2021/12/16 08:03:37;;;;;;;36.72;19.52;;;4.60;99.90;;;;;;6214403;23;20034;-79
2021/12/16 08:06:09;;;;;;;29.20;16.60;;;4.70;99.90;;;;;;6214366;23;20012;-80
2021/12/16 08:08:36;;;;;;;30.52;17.67;;;4.70;99.90;;;;;;6215879;23;20001;-80
2021/12/16 08:11:04;;;;;;;31.45;18.33;;;4.80;99.90;;;;;;6214537;23;20327;-80
2021/12/16 08:13:29;;;;;;;35.10;17.95;;;4.80;99.90;;;;;;6216003;23;20004;-80
2021/12/16 08:15:55;;;;;;;33.00;18.67;;;4.80;99.90;;;;;;6216007;23;20005;-80
2021/12/16 08:18:21;;;;;;;37.47;19.90;;;4.90;99.90;;;;;;6215935;23;20054;-80
2021/12/16 08:20:47;;;;;;;33.85;19.17;;;4.90;99.90;;;;;;6215920;23;20008;-80
2021/12/16 08:23:13;;;;;;;36.42;20.63;;;4.90;99.90;;;;;;6215749;23;20005;-80
2021/12/16 08:25:39;;;;;;;39.08;22.33;;;5.00;99.90;;;;;;6215886;23;20076;-80
2021/12/16 08:28:06;;;;;;;40.38;23.52;;;5.00;99.90;;;;;;6215686;23;20000;-80
2021/12/16 08:30:42;;;;;;;45.67;24.65;;;5.00;99.90;;;;;;6216000;23;20049;-80
2021/12/16 08:33:10;;;;;;;44.42;23.63;;;5.10;99.90;;;;;;6214298;23;20076;-80
2021/12/16 08:35:40;;;;;;;43.53;22.77;;;5.10;99.90;;;;;;6215612;23;20023;-80
2021/12/16 08:38:10;;;;;;;35.42;21.58;;;5.10;99.90;;;;;;6215765;23;20000;-80
2021/12/16 08:40:38;;;;;;;35.60;21.00;;;5.20;99.90;;;;;;6215733;23;20003;-79
2021/12/16 08:43:04;;;;;;;37.22;22.42;;;5.20;99.90;;;;;;6215455;23;20051;-80
2021/12/16 08:45:31;;;;;;;42.22;22.60;;;5.20;99.90;;;;;;6215614;23;20004;-80
2021/12/16 08:47:58;;;;;;;37.25;21.23;;;5.30;99.90;;;;;;6215655;23;20634;-80
2021/12/16 08:50:29;;;;;;;53.55;23.23;;;5.30;99.90;;;;;;6215851;23;20004;-80
2021/12/16 08:52:55;;;;;;;38.45;22.35;;;5.30;99.90;;;;;;6216133;23;20031;-80
2021/12/16 08:55:22;;;;;;;41.70;23.75;;;5.30;99.90;;;;;;6215931;23;20024;-80
2021/12/16 08:57:48;;;;;;;35.92;22.02;;;5.30;99.90;;;;;;6215931;23;20003;-80
2021/12/16 09:00:22;;;;;;;40.75;22.20;;;5.30;99.90;;;;;;6215867;23;20000;-80
2021/12/16 09:02:48;;;;;;;33.92;20.55;;;5.40;99.90;;;;;;6214343;23;20376;-80
2021/12/16 09:05:14;;;;;;;32.75;19.27;;;5.40;99.90;;;;;;6215525;23;20009;-80
2021/12/16 09:07:40;;;;;;;35.00;19.83;;;5.40;99.90;;;;;;6216061;23;20000;-80
2021/12/16 09:10:10;;;;;;;33.30;19.98;;;5.50;99.90;;;;;;6215425;23;19996;-79
2021/12/16 09:12:51;;;;;;;33.65;19.15;;;5.50;99.90;;;;;;6215953;23;20000;-80
2021/12/16 09:15:18;;;;;;;36.88;19.08;;;5.60;99.90;;;;;;6215657;23;20000;-80
2021/12/16 09:17:43;;;;;;;32.20;18.42;;;5.60;99.90;;;;;;6215685;23;20005;-80
2021/12/16 09:20:10;;;;;;;30.77;18.33;;;5.60;99.90;;;;;;6215392;23;20099;-79
2021/12/16 09:22:37;;;;;;;30.85;18.38;;;5.70;99.90;;;;;;6215749;23;20004;-80
2021/12/16 09:25:04;;;;;;;32.35;18.67;;;5.70;99.90;;;;;;6213783;23;20005;-80
2021/12/16 09:27:30;;;;;;;29.73;17.45;;;5.70;99.90;;;;;;6214516;23;20000;-80
2021/12/16 09:29:57;;;;;;;38.33;19.20;;;5.70;99.90;;;;;;6213084;23;20022;-81
2021/12/16 09:32:27;;;;;;;27.73;16.55;;;5.80;99.90;;;;;;6211687;23;20429;-81
2021/12/16 09:34:53;;;;;;;30.85;17.75;;;5.80;99.90;;;;;;6211737;23;20324;-84
2021/12/16 09:37:19;;;;;;;29.70;16.73;;;5.90;99.90;;;;;;6213129;23;20461;-81
2021/12/16 09:39:45;;;;;;;27.75;15.52;;;5.90;99.90;;;;;;6212686;23;20061;-80
2021/12/16 09:42:11;;;;;;;23.52;14.43;;;5.90;99.90;;;;;;6212653;23;20036;-80
2021/12/16 09:44:38;;;;;;;20.73;13.68;;;6.00;99.90;;;;;;6212398;23;20011;-81
2021/12/16 09:47:07;;;;;;;22.70;13.13;;;6.00;99.90;;;;;;6212398;23;20001;-80
2021/12/16 09:49:33;;;;;;;21.58;14.60;;;6.00;99.90;;;;;;6212616;23;20000;-81
2021/12/16 09:52:00;;;;;;;21.27;14.23;;;6.10;99.90;;;;;;6210997;23;20005;-78
2021/12/16 09:54:32;;;;;;;20.13;13.38;;;6.10;99.90;;;;;;6212035;23;20005;-79
2021/12/16 09:56:59;;;;;;;24.75;14.30;;;6.10;99.90;;;;;;6211688;23;20032;-74
2021/12/16 09:59:27;;;;;;;24.42;13.75;;;6.20;99.90;;;;;;6210704;23;20873;-73
2021/12/16 10:01:57;;;;;;;23.13;14.10;;;6.20;99.90;;;;;;6211160;23;20383;-73
2021/12/16 10:04:31;;;;;;;22.02;14.18;;;6.30;99.90;;;;;;6211440;23;20005;-73
2021/12/16 10:06:58;;;;;;;24.38;13.43;;;6.40;99.90;;;;;;6209151;23;20079;-73
2021/12/16 10:09:24;;;;;;;19.58;12.38;;;6.50;99.90;;;;;;6211549;23;20064;-73
2021/12/16 10:11:52;;;;;;;25.05;14.43;;;6.50;99.90;;;;;;6210620;23;20428;-73
2021/12/16 10:14:32;;;;;;;19.75;12.68;;;6.60;99.90;;;;;;6209316;23;20494;-73
2021/12/16 10:19:45;;;;;;;18.42;12.52;;;6.60;99.90;;;;;;6210785;23;20463;-73
2021/12/16 10:22:38;;;;;;;18.25;11.80;;;6.60;99.90;;;;;;6210313;23;20391;-73
2021/12/16 10:25:40;;;;;;;16.40;11.57;;;6.70;99.90;;;;;;6212106;23;20008;-73
2021/12/16 10:28:23;;;;;;;17.63;9.85;;;6.70;99.90;;;;;;6212470;23;19997;-74
2021/12/16 10:30:52;;;;;;;18.77;11.32;;;6.70;99.90;;;;;;6212560;23;20001;-73
2021/12/16 10:33:40;;;;;;;22.95;11.27;;;6.80;99.90;;;;;;6210863;23;20356;-74
2021/12/16 10:36:12;;;;;;;12.20;9.48;;;6.90;99.90;;;;;;6210653;23;20004;-73
2021/12/16 10:38:52;;;;;;;16.15;10.38;;;7.00;99.90;;;;;;6212312;23;20000;-74
2021/12/16 10:41:23;;;;;;;19.10;10.40;;;7.10;99.90;;;;;;6212474;23;20028;-73
2021/12/16 10:44:01;;;;;;;19.40;11.07;;;7.20;99.90;;;;;;6212460;23;20012;-73
2021/12/16 10:46:30;;;;;;;15.30;10.68;;;7.20;99.90;;;;;;6212269;23;20000;-73
2021/12/16 10:49:18;;;;;;;18.42;11.45;;;7.30;99.90;;;;;;6213117;23;20035;-74
2021/12/16 10:51:49;;;;;;;16.63;10.75;;;7.40;99.90;;;;;;6212355;23;19996;-73
2021/12/16 10:54:27;;;;;;;13.97;10.10;;;7.40;99.90;;;;;;6212980;23;20000;-74
2021/12/16 10:57:02;;;;;;;12.40;8.50;;;7.50;99.90;;;;;;6211034;23;20231;-74
2021/12/16 10:59:45;;;;;;;14.70;8.13;;;7.60;99.90;;;;;;6212870;23;20000;-74
2021/12/16 11:02:23;;;;;;;13.18;9.05;;;7.70;99.90;;;;;;6211131;23;20004;-74
2021/12/16 11:04:50;;;;;;;14.15;9.00;;;7.80;99.90;;;;;;6215531;23;20012;-73
2021/12/16 11:07:39;;;;;;;16.38;8.48;;;7.80;99.90;;;;;;6243013;23;20598;-73
2021/12/16 11:10:10;;;;;;;14.65;8.15;;;7.80;99.90;;;;;;6241722;23;20008;-73
2021/12/16 11:13:19;;;;;;;13.52;8.43;;;8.00;99.90;;;;;;6243314;23;20004;-74
2021/12/16 11:15:52;;;;;;;14.75;8.43;;;8.00;99.90;;;;;;6222423;23;20031;-73
2021/12/16 11:18:28;;;;;;;11.70;8.18;;;8.00;99.90;;;;;;6215543;23;20310;-73
2021/12/16 11:20:56;;;;;;;19.60;8.30;;;8.20;99.90;;;;;;6215349;23;20019;-74
2021/12/16 11:23:26;;;;;;;12.15;8.43;;;8.20;99.90;;;;;;6215098;23;20091;-73
2021/12/16 11:26:04;;;;;;;15.70;8.05;;;8.30;99.90;;;;;;6215951;23;20008;-73
2021/12/16 11:28:35;;;;;;;15.15;8.38;;;8.30;99.90;;;;;;6242909;23;20000;-74
2021/12/16 11:31:12;;;;;;;13.15;8.40;;;8.40;99.90;;;;;;6243068;23;20000;-73
2021/12/16 11:33:42;;;;;;;16.80;9.15;;;8.40;99.90;;;;;;6242361;23;20000;-74
2021/12/16 11:36:13;;;;;;;16.10;9.68;;;8.50;99.90;;;;;;6242011;23;20032;-74
2021/12/16 11:38:55;;;;;;;15.32;9.65;;;8.60;99.90;;;;;;6241853;23;20087;-73
2021/12/16 11:41:41;;;;;;;16.58;10.23;;;8.70;99.90;;;;;;6240961;23;20014;-74
2021/12/16 11:44:16;;;;;;;20.65;11.05;;;8.70;99.90;;;;;;6241638;23;20004;-74
2021/12/16 11:46:56;;;;;;;17.00;10.43;;;8.80;99.90;;;;;;6214730;23;20012;-73
2021/12/16 11:49:31;;;;;;;17.98;10.73;;;8.80;99.90;;;;;;6241997;23;19988;-74
2021/12/16 11:52:12;;;;;;;21.30;11.18;;;8.80;99.90;;;;;;6241818;23;20000;-74
2021/12/16 11:54:58;;;;;;;17.73;10.40;;;8.90;99.90;;;;;;6242197;23;20004;-73
2021/12/16 11:57:32;;;;;;;17.90;11.82;;;8.90;99.90;;;;;;6213338;23;20007;-74
2021/12/16 12:00:13;;;;;;;21.50;11.48;;;8.90;99.90;;;;;;6240894;23;20058;-73
2021/12/16 12:02:53;;;;;;;19.58;12.13;;;8.90;99.90;;;;;;6240789;23;20000;-73
2021/12/16 12:05:42;;;;;;;17.83;11.73;;;9.00;99.90;;;;;;6213511;23;20399;-74
2021/12/16 12:08:26;;;;;;;25.10;12.35;;;9.00;99.90;;;;;;6240080;23;20006;-74
2021/12/16 12:10:59;;;;;;;23.88;13.98;;;9.00;99.90;;;;;;6240784;23;20087;-74
2021/12/16 12:13:34;;;;;;;28.55;14.70;;;9.00;99.90;;;;;;6240357;23;19996;-74
2021/12/16 12:16:13;;;;;;;25.23;14.05;;;9.10;99.90;;;;;;6214038;23;20004;-74
2021/12/16 12:18:42;;;;;;;23.80;14.07;;;9.00;99.90;;;;;;6242842;23;19993;-74
2021/12/16 12:21:32;;;;;;;31.52;15.88;;;9.10;99.90;;;;;;6246027;23;19997;-74
2021/12/16 12:24:03;;;;;;;33.08;16.02;;;9.00;99.90;;;;;;6246307;23;20000;-79
2021/12/16 12:26:32;;;;;;;24.17;15.55;;;9.00;99.90;;;;;;6219661;23;20112;-77
2021/12/16 12:29:10;;;;;;;26.27;15.20;;;9.00;99.90;;;;;;6246340;23;20000;-80
2021/12/16 12:31:45;;;;;;;24.10;14.48;;;9.00;99.90;;;;;;6246449;23;20000;-80
2021/12/16 12:34:11;;;;;;;27.10;14.35;;;9.00;99.90;;;;;;6219582;23;20058;-78
2021/12/16 12:36:38;;;;;;;30.52;15.48;;;9.00;99.90;;;;;;6246733;23;20038;-78
2021/12/16 12:39:08;;;;;;;30.73;15.68;;;9.00;99.90;;;;;;6246470;23;20035;-77
2021/12/16 12:41:34;;;;;;;25.20;16.55;;;9.00;99.90;;;;;;6246313;23;20007;-80
2021/12/16 12:44:01;;;;;;;29.73;15.95;;;9.00;99.90;;;;;;6246006;23;20004;-79
2021/12/16 12:46:27;;;;;;;36.13;15.80;;;9.00;99.90;;;;;;6246104;23;20004;-79
2021/12/16 12:48:55;;;;;;;26.08;16.42;;;8.90;99.90;;;;;;6246314;23;20003;-79
2021/12/16 12:51:37;;;;;;;32.60;16.88;;;8.90;99.90;;;;;;6246406;23;20000;-80
2021/12/16 12:54:34;;;;;;;31.30;17.05;;;8.90;99.90;;;;;;6246271;23;20008;-79
2021/12/16 12:57:18;;;;;;;29.90;16.83;;;8.90;99.90;;;;;;6245439;23;20011;-77
2021/12/16 12:59:44;;;;;;;35.42;17.10;;;9.00;99.90;;;;;;6244240;23;20011;-80
2021/12/16 13:02:34;;;;;;;34.13;17.80;;;9.00;99.90;;;;;;6216279;23;20000;-80
2021/12/16 13:05:05;;;;;;;38.25;19.33;;;9.00;99.90;;;;;;6232620;23;20009;-80
2021/12/16 13:07:44;;;;;;;36.45;19.45;;;9.00;99.90;;;;;;6212730;23;20341;-80
2021/12/16 13:10:41;;;;;;;30.48;18.13;;;8.90;99.90;;;;;;6212946;23;20046;-79
2021/12/16 13:13:27;;;;;;;34.60;18.73;;;9.00;99.90;;;;;;6194741;23;20079;-79
2021/12/16 13:27:47;;;;;;;33.90;18.52;;;9.00;99.90;;;;;;6150910;23;20013;-74
2021/12/16 13:30:26;;;;;;;33.50;17.02;;;8.90;99.90;;;;;;6199794;23;20008;-74
2021/12/16 13:33:34;;;;;;;37.85;17.58;;;8.90;99.90;;;;;;6212242;23;20349;-74
2021/12/16 13:36:04;;;;;;;28.83;16.92;;;8.90;99.90;;;;;;6210818;23;20062;-74
2021/12/16 13:38:43;;;;;;;32.40;16.30;;;8.90;99.90;;;;;;6208693;23;20517;-73
2021/12/16 13:41:16;;;;;;;26.25;17.02;;;8.90;99.90;;;;;;6210526;23;20001;-74
2021/12/16 13:43:55;;;;;;;30.77;16.33;;;8.80;99.90;;;;;;6210546;23;20493;-72
2021/12/16 13:46:43;;;;;;;56.35;31.40;;;8.90;99.90;;;;;;6210339;23;20005;-73
2021/12/16 14:03:51;;;;;;;67.40;37.78;;;8.60;99.90;;;;;;6216033;23;20095;-75
2021/12/16 14:06:21;;;;;;;67.32;38.17;;;8.60;99.90;;;;;;6210336;23;20016;-74
2021/12/16 14:08:51;;;;;;;72.13;38.38;;;8.60;99.90;;;;;;6213402;23;20024;-75
2021/12/16 14:14:50;;;;;;;74.05;39.65;;;8.50;99.90;;;;;;6212566;23;20043;-74
2021/12/16 14:23:18;;;;;;;72.90;40.80;;;8.30;99.90;;;;;;6211877;23;20020;-75
2021/12/16 14:31:51;;;;;;;72.50;43.08;;;8.20;99.90;;;;;;6211370;23;20015;-75
2021/12/16 14:50:20;;;;;;;75.68;43.47;;;7.90;99.90;;;;;;6213978;23;20059;-79
2021/12/16 14:52:45;;;;;;;71.63;43.13;;;7.90;99.90;;;;;;6213468;23;20428;-79
2021/12/16 14:55:15;;;;;;;78.43;40.88;;;7.90;99.90;;;;;;6214277;23;20039;-79
2021/12/16 14:57:44;;;;;;;78.00;43.42;;;7.80;99.90;;;;;;6213847;23;20081;-79
2021/12/16 15:00:34;;;;;;;73.75;41.97;;;7.80;99.90;;;;;;6213849;23;20075;-79
2021/12/16 15:03:05;;;;;;;76.85;44.63;;;7.70;99.90;;;;;;6212524;23;20769;-79
2021/12/16 15:05:40;;;;;;;73.32;42.22;;;7.70;99.90;;;;;;6213194;23;20012;-78
2021/12/16 15:08:18;;;;;;;67.80;41.20;;;7.60;99.90;;;;;;6216163;23;20008;-80
2021/12/16 15:10:44;;;;;;;66.90;41.53;;;7.60;99.90;;;;;;6215266;23;20054;-80
2021/12/16 15:13:20;;;;;;;71.43;41.42;;;7.50;99.90;;;;;;6215261;23;20337;-81
2021/12/16 15:40:55;;;;;;;81.78;46.28;;;6.80;99.90;;;;;;6215866;23;20388;-81
2021/12/16 15:43:01;;;;;;;84.55;46.55;;;6.70;99.90;;;;;;6205106;23;20715;-81
2021/12/16 15:45:48;;;;;;;70.63;42.70;;;6.70;99.90;;;;;;6213123;23;20008;-82
2021/12/16 15:48:21;;;;;;;78.38;42.17;;;6.60;99.90;;;;;;6213481;23;19997;-81
2021/12/16 15:50:57;;;;;;;73.68;42.85;;;6.60;99.90;;;;;;6213088;23;20015;-81
2021/12/16 15:53:29;;;;;;;77.95;45.85;;;6.50;99.90;;;;;;6212970;23;20135;-81
2021/12/16 15:56:07;;;;;;;77.47;44.75;;;6.40;99.90;;;;;;6211569;23;20005;-81
2021/12/16 15:58:39;;;;;;;68.50;40.92;;;6.40;99.90;;;;;;6212769;23;20001;-81
2021/12/16 16:01:22;;;;;;;68.88;41.55;;;6.40;99.90;;;;;;6212614;23;20003;-81
2021/12/16 16:03:48;;;;;;;76.03;40.72;;;6.30;99.90;;;;;;6212682;23;20015;-81
2021/12/16 16:06:16;;;;;;;82.30;43.38;;;6.20;99.90;;;;;;6213533;23;20012;-81
2021/12/16 16:08:48;;;;;;;75.47;42.15;;;6.10;99.90;;;;;;6211109;23;20055;-81
2021/12/16 16:11:50;;;;;;;72.72;41.50;;;6.10;99.90;;;;;;6214826;23;20003;-73
2021/12/16 16:14:17;;;;;;;83.95;48.25;;;6.00;99.90;;;;;;6200055;23;20005;-73
2021/12/16 16:16:53;;;;;;;86.15;48.70;;;5.90;99.90;;;;;;6215835;23;20425;-73
2021/12/16 16:19:25;;;;;;;92.20;46.95;;;5.90;99.90;;;;;;6213741;23;20352;-74
2021/12/16 16:21:54;;;;;;;80.70;45.85;;;5.90;99.90;;;;;;6214347;23;20000;-73
2021/12/16 16:24:36;;;;;;;77.03;45.15;;;5.90;99.90;;;;;;6215339;23;20005;-73
2021/12/16 16:27:10;;;;;;;80.35;45.47;;;5.90;99.90;;;;;;6215623;23;20000;-73
2021/12/16 16:29:37;;;;;;;77.57;43.80;;;5.90;99.90;;;;;;6214223;23;20011;-73
2021/12/16 16:32:05;;;;;;;68.93;41.85;;;5.80;99.90;;;;;;6215458;23;20652;-73
2021/12/16 16:34:47;;;;;;;82.20;43.15;;;5.80;99.90;;;;;;6215537;23;20000;-73
2021/12/16 16:37:19;;;;;;;;;;;5.70;99.90;;;;;;6216344;23;20360;-73
2021/12/16 16:39:55;;;;;;;75.35;43.95;;;5.60;99.90;;;;;;6215562;23;19906;-73
2021/12/16 16:42:23;;;;;;;79.85;43.35;;;5.60;99.90;;;;;;6213810;23;20100;-74
2021/12/16 16:44:53;;;;;;;76.85;44.72;;;5.60;99.90;;;;;;6211699;23;20374;-73
2021/12/16 16:47:32;;;;;;;76.03;44.20;;;5.50;99.90;;;;;;6212542;23;20022;-73
2021/12/16 16:49:58;;;;;;;75.60;43.47;;;5.40;99.90;;;;;;6210685;23;20050;-73
2021/12/16 16:52:46;;;;;;;70.05;41.58;;;5.30;99.90;;;;;;6211786;23;19997;-73
2021/12/16 16:55:19;;;;;;;73.72;41.95;;;5.30;99.90;;;;;;6212131;23;20028;-73
2021/12/16 16:57:49;;;;;;;67.70;39.95;;;5.20;99.90;;;;;;6210978;23;20005;-73